THY2RC LROP-LTFM
Flight info
| Callsign | THY2RC |
|---|---|
| Flight time | 0h 54m |
| Altitude | 33000 |
| Route | IDARU DCT NONQE DCT MAXOV DCT MATEL L620 RIXEN |
| Aircraft | A359/H-SDE2E3GHIJ3J4J5LM1ORWXY/LB1D1 |
Departure
| Time | 2026-04-30 21:37 |
|---|---|
| Airport | Bucharest Henri Coandă International Airport (LROP) |
Arrival
| Time | 2026-04-30 22:32 |
|---|---|
| Airport | İstanbul Airport (LTFM) |
| Time | Latitude | Longitude | Altitude | Speed | Heading |
|---|---|---|---|---|---|
| 2026-04-30 21:13 | 44.57089 | 26.08267 | 329 ft | 0 kts | 264° |
| 2026-04-30 21:27 | 44.57090 | 26.08287 | 324 ft | 4 kts | 264° |
| 2026-04-30 21:27 | 44.57093 | 26.08325 | 324 ft | 4 kts | 264° |
| 2026-04-30 21:28 | 44.57082 | 26.08377 | 324 ft | 4 kts | 348° |
| 2026-04-30 21:28 | 44.57057 | 26.08382 | 325 ft | 4 kts | 354° |
| 2026-04-30 21:28 | 44.57032 | 26.08385 | 324 ft | 0 kts | 354° |
| 2026-04-30 21:33 | 44.57042 | 26.08384 | 326 ft | 3 kts | 354° |
| 2026-04-30 21:33 | 44.57081 | 26.08378 | 324 ft | 7 kts | 354° |
| 2026-04-30 21:34 | 44.57145 | 26.08369 | 325 ft | 11 kts | 354° |
| 2026-04-30 21:34 | 44.57226 | 26.08425 | 329 ft | 7 kts | 79° |
| 2026-04-30 21:34 | 44.57238 | 26.08477 | 324 ft | 9 kts | 58° |
| 2026-04-30 21:35 | 44.57290 | 26.08497 | 325 ft | 9 kts | 353° |
| 2026-04-30 21:35 | 44.57364 | 26.08486 | 325 ft | 12 kts | 354° |
| 2026-04-30 21:35 | 44.57461 | 26.08472 | 325 ft | 16 kts | 354° |
| 2026-04-30 21:35 | 44.57574 | 26.08456 | 325 ft | 9 kts | 354° |
| 2026-04-30 21:36 | 44.57617 | 26.08451 | 327 ft | 8 kts | 357° |
| 2026-04-30 21:36 | 44.57658 | 26.08487 | 326 ft | 7 kts | 60° |
| 2026-04-30 21:37 | 44.57695 | 26.08875 | 326 ft | 68 kts | 84° |
| 2026-04-30 21:37 | 44.57770 | 26.09881 | 326 ft | 137 kts | 84° |
| 2026-04-30 21:37 | 44.57907 | 26.11461 | 548 ft | 175 kts | 83° |
| 2026-04-30 21:37 | 44.58055 | 26.13113 | 1470 ft | 170 kts | 83° |
| 2026-04-30 21:38 | 44.58148 | 26.14852 | 2066 ft | 187 kts | 83° |
| 2026-04-30 21:38 | 44.58281 | 26.16740 | 2512 ft | 211 kts | 82° |
| 2026-04-30 21:38 | 44.58450 | 26.18902 | 3119 ft | 229 kts | 81° |
| 2026-04-30 21:38 | 44.58621 | 26.21144 | 4028 ft | 233 kts | 81° |
| 2026-04-30 21:39 | 44.58793 | 26.23452 | 4988 ft | 237 kts | 81° |
| 2026-04-30 21:39 | 44.58967 | 26.25771 | 5910 ft | 242 kts | 80° |
| 2026-04-30 21:39 | 44.59145 | 26.28157 | 6788 ft | 249 kts | 81° |
| 2026-04-30 21:39 | 44.59325 | 26.30574 | 7646 ft | 257 kts | 81° |
| 2026-04-30 21:40 | 44.59511 | 26.33100 | 8540 ft | 264 kts | 81° |
| 2026-04-30 21:40 | 44.59485 | 26.35720 | 9444 ft | 274 kts | 96° |
| 2026-04-30 21:40 | 44.58843 | 26.38277 | 10342 ft | 285 kts | 120° |
| 2026-04-30 21:40 | 44.57467 | 26.40372 | 10952 ft | 305 kts | 140° |
| 2026-04-30 21:41 | 44.55691 | 26.42209 | 11368 ft | 329 kts | 144° |
| 2026-04-30 21:41 | 44.53754 | 26.44100 | 11828 ft | 348 kts | 144° |
| 2026-04-30 21:41 | 44.51742 | 26.46072 | 12563 ft | 358 kts | 144° |
| 2026-04-30 21:41 | 44.50095 | 26.47694 | 13253 ft | 362 kts | 144° |
| 2026-04-30 21:42 | 44.48252 | 26.49515 | 14062 ft | 367 kts | 144° |
| 2026-04-30 21:42 | 44.46380 | 26.51369 | 14773 ft | 371 kts | 144° |
| 2026-04-30 21:42 | 44.45180 | 26.52558 | 15251 ft | 374 kts | 144° |
| 2026-04-30 21:42 | 44.43253 | 26.54467 | 16054 ft | 377 kts | 145° |
| 2026-04-30 21:43 | 44.41103 | 26.56597 | 16942 ft | 380 kts | 145° |
| 2026-04-30 21:43 | 44.38932 | 26.58746 | 17750 ft | 385 kts | 146° |
| 2026-04-30 21:43 | 44.36725 | 26.60929 | 18501 ft | 392 kts | 146° |
| 2026-04-30 21:43 | 44.34483 | 26.63144 | 19197 ft | 397 kts | 147° |
| 2026-04-30 21:44 | 44.32212 | 26.65385 | 19864 ft | 403 kts | 147° |
| 2026-04-30 21:44 | 44.29912 | 26.67654 | 20523 ft | 409 kts | 147° |
| 2026-04-30 21:44 | 44.27568 | 26.69963 | 21196 ft | 414 kts | 148° |
| 2026-04-30 21:44 | 44.25198 | 26.72296 | 21857 ft | 420 kts | 148° |
| 2026-04-30 21:45 | 44.22792 | 26.74662 | 22516 ft | 426 kts | 149° |
| 2026-04-30 21:45 | 44.20357 | 26.77054 | 23171 ft | 431 kts | 149° |
| 2026-04-30 21:45 | 44.17886 | 26.79479 | 23831 ft | 437 kts | 149° |
| 2026-04-30 21:45 | 44.15383 | 26.81933 | 24379 ft | 442 kts | 149° |
| 2026-04-30 21:46 | 44.12858 | 26.84406 | 24948 ft | 446 kts | 149° |
| 2026-04-30 21:46 | 44.10307 | 26.86903 | 25488 ft | 451 kts | 149° |
| 2026-04-30 21:46 | 44.07731 | 26.89425 | 26122 ft | 452 kts | 150° |
| 2026-04-30 21:46 | 44.05159 | 26.91938 | 26791 ft | 454 kts | 151° |
| 2026-04-30 21:47 | 44.02558 | 26.94472 | 27323 ft | 459 kts | 151° |
| 2026-04-30 21:47 | 43.99961 | 26.97000 | 27877 ft | 463 kts | 151° |
| 2026-04-30 21:47 | 43.97278 | 26.99610 | 28420 ft | 467 kts | 151° |
| 2026-04-30 21:47 | 43.94643 | 27.02172 | 28943 ft | 471 kts | 151° |
| 2026-04-30 21:48 | 43.91943 | 27.04794 | 29468 ft | 475 kts | 151° |
| 2026-04-30 21:48 | 43.89224 | 27.07431 | 29995 ft | 479 kts | 151° |
| 2026-04-30 21:48 | 43.86488 | 27.10084 | 30516 ft | 481 kts | 152° |
| 2026-04-30 21:48 | 43.83738 | 27.12747 | 30939 ft | 484 kts | 152° |
| 2026-04-30 21:49 | 43.80963 | 27.15428 | 31268 ft | 488 kts | 152° |
| 2026-04-30 21:49 | 43.78166 | 27.18127 | 31623 ft | 492 kts | 152° |
| 2026-04-30 21:49 | 43.75344 | 27.20847 | 31973 ft | 496 kts | 152° |
| 2026-04-30 21:49 | 43.72508 | 27.23580 | 32294 ft | 499 kts | 152° |
| 2026-04-30 21:50 | 43.69645 | 27.26335 | 32633 ft | 503 kts | 152° |
| 2026-04-30 21:50 | 43.66764 | 27.29104 | 32925 ft | 506 kts | 152° |
| 2026-04-30 21:50 | 43.63863 | 27.31889 | 33226 ft | 509 kts | 152° |
| 2026-04-30 21:50 | 43.60967 | 27.34668 | 33288 ft | 506 kts | 152° |
| 2026-04-30 21:51 | 43.55204 | 27.40189 | 33272 ft | 503 kts | 152° |
| 2026-04-30 21:51 | 43.49452 | 27.45681 | 33286 ft | 503 kts | 152° |
| 2026-04-30 21:52 | 43.43692 | 27.51166 | 33271 ft | 503 kts | 153° |
| 2026-04-30 21:52 | 43.37930 | 27.56641 | 33260 ft | 504 kts | 153° |
| 2026-04-30 21:53 | 43.32163 | 27.62110 | 33249 ft | 503 kts | 153° |
| 2026-04-30 21:53 | 43.26396 | 27.67564 | 33214 ft | 503 kts | 153° |
| 2026-04-30 21:54 | 43.20616 | 27.73016 | 33241 ft | 505 kts | 153° |
| 2026-04-30 21:54 | 43.14820 | 27.78472 | 33236 ft | 506 kts | 153° |
| 2026-04-30 21:55 | 43.08941 | 27.83697 | 33241 ft | 497 kts | 160° |
| 2026-04-30 21:55 | 43.05815 | 27.85579 | 33202 ft | 486 kts | 169° |
| 2026-04-30 21:55 | 43.02587 | 27.86743 | 33223 ft | 474 kts | 179° |
| 2026-04-30 21:56 | 42.96133 | 27.87309 | 33243 ft | 462 kts | 187° |
| 2026-04-30 21:56 | 42.89706 | 27.87470 | 33245 ft | 462 kts | 187° |
| 2026-04-30 21:57 | 42.83274 | 27.87644 | 33208 ft | 462 kts | 187° |
| 2026-04-30 21:57 | 42.76850 | 27.87825 | 33236 ft | 461 kts | 187° |
| 2026-04-30 21:58 | 42.70447 | 27.88005 | 33216 ft | 460 kts | 187° |
| 2026-04-30 21:58 | 42.64047 | 27.88186 | 33227 ft | 460 kts | 188° |
| 2026-04-30 21:59 | 42.57640 | 27.88367 | 33231 ft | 460 kts | 188° |
| 2026-04-30 22:00 | 42.48049 | 27.88637 | 33224 ft | 460 kts | 188° |
| 2026-04-30 22:00 | 42.41660 | 27.88812 | 32747 ft | 466 kts | 188° |
| 2026-04-30 22:00 | 42.38377 | 27.88904 | 32484 ft | 467 kts | 188° |
| 2026-04-30 22:01 | 42.35166 | 27.88996 | 32218 ft | 467 kts | 187° |
| 2026-04-30 22:01 | 42.31881 | 27.89089 | 31941 ft | 467 kts | 187° |
| 2026-04-30 22:01 | 42.28628 | 27.89181 | 31685 ft | 466 kts | 187° |
| 2026-04-30 22:01 | 42.25384 | 27.89273 | 31420 ft | 466 kts | 187° |
| 2026-04-30 22:02 | 42.22179 | 27.89361 | 31157 ft | 471 kts | 187° |
| 2026-04-30 22:02 | 42.18886 | 27.89449 | 30995 ft | 472 kts | 187° |
| 2026-04-30 22:02 | 42.15613 | 27.89544 | 30753 ft | 469 kts | 187° |
| 2026-04-30 22:02 | 42.12351 | 27.89637 | 30504 ft | 469 kts | 187° |
| 2026-04-30 22:03 | 42.09095 | 27.89728 | 30256 ft | 469 kts | 187° |
| 2026-04-30 22:03 | 42.05832 | 27.89819 | 29963 ft | 468 kts | 187° |
| 2026-04-30 22:03 | 42.02583 | 27.89910 | 29655 ft | 466 kts | 187° |
| 2026-04-30 22:03 | 41.99363 | 27.90003 | 29160 ft | 458 kts | 187° |
| 2026-04-30 22:04 | 41.96206 | 27.90092 | 28584 ft | 450 kts | 186° |
| 2026-04-30 22:04 | 41.93102 | 27.90179 | 28016 ft | 444 kts | 186° |
| 2026-04-30 22:04 | 41.86999 | 27.90350 | 26869 ft | 433 kts | 186° |
| 2026-04-30 22:05 | 41.84009 | 27.90433 | 26315 ft | 427 kts | 186° |
| 2026-04-30 22:05 | 41.81055 | 27.90514 | 25771 ft | 422 kts | 186° |
| 2026-04-30 22:05 | 41.78131 | 27.90594 | 25247 ft | 419 kts | 186° |
| 2026-04-30 22:05 | 41.75220 | 27.90672 | 24686 ft | 417 kts | 186° |
| 2026-04-30 22:06 | 41.72327 | 27.90749 | 24148 ft | 415 kts | 186° |
| 2026-04-30 22:06 | 41.66597 | 27.90905 | 22989 ft | 409 kts | 186° |
| 2026-04-30 22:06 | 41.63765 | 27.90985 | 22442 ft | 406 kts | 186° |
| 2026-04-30 22:07 | 41.60943 | 27.91061 | 21885 ft | 404 kts | 186° |
| 2026-04-30 22:07 | 41.58143 | 27.91138 | 21351 ft | 401 kts | 185° |
| 2026-04-30 22:07 | 41.55366 | 27.91213 | 20790 ft | 397 kts | 185° |
| 2026-04-30 22:07 | 41.52613 | 27.91288 | 20259 ft | 394 kts | 185° |
| 2026-04-30 22:08 | 41.49885 | 27.91363 | 19696 ft | 391 kts | 185° |
| 2026-04-30 22:08 | 41.47179 | 27.91437 | 19153 ft | 388 kts | 184° |
| 2026-04-30 22:08 | 41.44491 | 27.91511 | 18578 ft | 385 kts | 185° |
| 2026-04-30 22:08 | 41.41812 | 27.91583 | 17985 ft | 385 kts | 185° |
| 2026-04-30 22:09 | 41.39142 | 27.91655 | 17409 ft | 382 kts | 184° |
| 2026-04-30 22:09 | 41.36495 | 27.91728 | 16851 ft | 378 kts | 184° |
| 2026-04-30 22:09 | 41.33878 | 27.91799 | 16296 ft | 375 kts | 184° |
| 2026-04-30 22:09 | 41.31282 | 27.91870 | 15768 ft | 371 kts | 184° |
| 2026-04-30 22:10 | 41.28716 | 27.91940 | 15212 ft | 368 kts | 184° |
| 2026-04-30 22:10 | 41.26152 | 27.92008 | 14671 ft | 371 kts | 184° |
| 2026-04-30 22:10 | 41.23591 | 27.92073 | 13969 ft | 376 kts | 184° |
| 2026-04-30 22:10 | 41.20999 | 27.92144 | 13175 ft | 365 kts | 183° |
| 2026-04-30 22:11 | 41.16160 | 27.92286 | 11627 ft | 332 kts | 182° |
| 2026-04-30 22:11 | 41.13892 | 27.92348 | 10871 ft | 320 kts | 182° |
| 2026-04-30 22:11 | 41.11702 | 27.92406 | 10140 ft | 309 kts | 182° |
| 2026-04-30 22:12 | 41.09589 | 27.92461 | 9364 ft | 300 kts | 181° |
| 2026-04-30 22:12 | 41.07526 | 27.92519 | 8573 ft | 292 kts | 182° |
| 2026-04-30 22:12 | 41.05519 | 27.92577 | 7850 ft | 285 kts | 182° |
| 2026-04-30 22:12 | 41.03572 | 27.92625 | 7642 ft | 279 kts | 180° |
| 2026-04-30 22:13 | 41.01628 | 27.92673 | 7521 ft | 280 kts | 181° |
| 2026-04-30 22:13 | 40.99675 | 27.92719 | 7394 ft | 281 kts | 180° |
| 2026-04-30 22:13 | 40.97717 | 27.92771 | 7272 ft | 283 kts | 180° |
| 2026-04-30 22:13 | 40.95767 | 27.93085 | 7143 ft | 282 kts | 164° |
| 2026-04-30 22:14 | 40.94048 | 27.94283 | 7024 ft | 281 kts | 139° |
| 2026-04-30 22:14 | 40.92874 | 27.96319 | 6895 ft | 279 kts | 112° |
| 2026-04-30 22:14 | 40.92458 | 27.98785 | 6785 ft | 274 kts | 85° |
| 2026-04-30 22:14 | 40.92874 | 28.01209 | 6643 ft | 270 kts | 69° |
| 2026-04-30 22:15 | 40.93429 | 28.03579 | 6533 ft | 270 kts | 72° |
| 2026-04-30 22:15 | 40.93876 | 28.05975 | 6398 ft | 263 kts | 75° |
| 2026-04-30 22:15 | 40.94228 | 28.08290 | 6260 ft | 252 kts | 77° |
| 2026-04-30 22:15 | 40.94526 | 28.10524 | 6114 ft | 242 kts | 78° |
| 2026-04-30 22:16 | 40.94793 | 28.12702 | 6004 ft | 239 kts | 79° |
| 2026-04-30 22:16 | 40.95043 | 28.14869 | 5857 ft | 238 kts | 79° |
| 2026-04-30 22:17 | 40.95746 | 28.21316 | 5472 ft | 235 kts | 79° |
| 2026-04-30 22:17 | 40.95973 | 28.23445 | 5351 ft | 233 kts | 79° |
| 2026-04-30 22:17 | 40.96419 | 28.27671 | 5090 ft | 231 kts | 80° |
| 2026-04-30 22:18 | 40.96640 | 28.29777 | 5002 ft | 231 kts | 80° |
| 2026-04-30 22:18 | 40.97075 | 28.33932 | 4974 ft | 229 kts | 80° |
| 2026-04-30 22:19 | 40.97395 | 28.38073 | 4976 ft | 226 kts | 90° |
| 2026-04-30 22:19 | 40.96973 | 28.40091 | 4990 ft | 231 kts | 111° |
| 2026-04-30 22:19 | 40.95383 | 28.43815 | 4973 ft | 233 kts | 116° |
| 2026-04-30 22:20 | 40.94569 | 28.45667 | 4971 ft | 233 kts | 117° |
| 2026-04-30 22:20 | 40.92950 | 28.49382 | 4970 ft | 233 kts | 118° |
| 2026-04-30 22:20 | 40.92144 | 28.51244 | 4971 ft | 234 kts | 117° |
| 2026-04-30 22:21 | 40.91336 | 28.53111 | 4969 ft | 234 kts | 118° |
| 2026-04-30 22:21 | 40.90526 | 28.54979 | 4964 ft | 234 kts | 118° |
| 2026-04-30 22:21 | 40.89740 | 28.56864 | 4966 ft | 234 kts | 114° |
| 2026-04-30 22:21 | 40.89351 | 28.58925 | 4966 ft | 230 kts | 88° |
| 2026-04-30 22:22 | 40.89498 | 28.60298 | 4976 ft | 228 kts | 73° |
| 2026-04-30 22:22 | 40.89978 | 28.62285 | 4974 ft | 226 kts | 68° |
| 2026-04-30 22:22 | 40.90501 | 28.64229 | 4962 ft | 223 kts | 69° |
| 2026-04-30 22:22 | 40.91015 | 28.66158 | 4973 ft | 222 kts | 68° |
| 2026-04-30 22:23 | 40.91588 | 28.68053 | 4966 ft | 222 kts | 60° |
| 2026-04-30 22:23 | 40.92552 | 28.69564 | 4964 ft | 209 kts | 36° |
| 2026-04-30 22:23 | 40.93740 | 28.70539 | 4942 ft | 194 kts | 29° |
| 2026-04-30 22:23 | 40.94881 | 28.71358 | 4959 ft | 179 kts | 29° |
| 2026-04-30 22:24 | 40.95927 | 28.72110 | 4981 ft | 165 kts | 30° |
| 2026-04-30 22:24 | 40.96964 | 28.72783 | 4981 ft | 172 kts | 22° |
| 2026-04-30 22:24 | 40.98149 | 28.73201 | 4976 ft | 179 kts | 12° |
| 2026-04-30 22:24 | 40.99399 | 28.73355 | 4958 ft | 182 kts | 4° |
| 2026-04-30 22:25 | 41.00657 | 28.73366 | 4968 ft | 184 kts | 1° |
| 2026-04-30 22:25 | 41.01934 | 28.73337 | 4966 ft | 183 kts | 1° |
| 2026-04-30 22:25 | 41.03205 | 28.73304 | 4933 ft | 182 kts | 2° |
| 2026-04-30 22:25 | 41.04463 | 28.73276 | 4759 ft | 181 kts | 2° |
| 2026-04-30 22:26 | 41.06977 | 28.73220 | 4216 ft | 179 kts | 1° |
| 2026-04-30 22:26 | 41.08223 | 28.73192 | 3942 ft | 179 kts | 2° |
| 2026-04-30 22:26 | 41.09457 | 28.73163 | 3680 ft | 177 kts | 1° |
| 2026-04-30 22:27 | 41.10677 | 28.73133 | 3458 ft | 174 kts | 3° |
| 2026-04-30 22:27 | 41.11883 | 28.73108 | 3217 ft | 172 kts | 2° |
| 2026-04-30 22:27 | 41.14217 | 28.73052 | 2789 ft | 165 kts | 2° |
| 2026-04-30 22:28 | 41.16358 | 28.73001 | 2343 ft | 145 kts | 4° |
| 2026-04-30 22:28 | 41.17317 | 28.72979 | 2157 ft | 131 kts | 4° |
| 2026-04-30 22:29 | 41.19798 | 28.72924 | 1689 ft | 117 kts | 3° |
| 2026-04-30 22:29 | 41.20613 | 28.72906 | 1518 ft | 117 kts | 3° |
| 2026-04-30 22:30 | 41.23891 | 28.72848 | 924 ft | 124 kts | 1° |
| 2026-04-30 22:31 | 41.26351 | 28.72771 | 365 ft | 116 kts | 3° |
| 2026-04-30 22:32 | 41.27810 | 28.72740 | 338 ft | 32 kts | 359° |
| 2026-04-30 22:32 | 41.28106 | 28.72863 | 338 ft | 14 kts | 28° |
| 2026-04-30 22:33 | 41.28150 | 28.72936 | 336 ft | 3 kts | 117° |
| 2026-04-30 22:33 | 41.28062 | 28.72962 | 339 ft | 11 kts | 178° |
| 2026-04-30 22:34 | 41.27747 | 28.72969 | 336 ft | 5 kts | 179° |
| 2026-04-30 22:35 | 41.27733 | 28.72969 | 339 ft | 2 kts | 179° |
| 2026-04-30 22:36 | 41.27555 | 28.72973 | 336 ft | 11 kts | 179° |
| 2026-04-30 22:36 | 41.27469 | 28.72975 | 336 ft | 14 kts | 180° |
| 2026-04-30 22:37 | 41.27391 | 28.73112 | 340 ft | 8 kts | 88° |
| 2026-04-30 22:37 | 41.27394 | 28.73197 | 340 ft | 10 kts | 89° |
| 2026-04-30 22:37 | 41.27395 | 28.73402 | 338 ft | 12 kts | 88° |
| 2026-04-30 22:38 | 41.27400 | 28.73630 | 340 ft | 12 kts | 88° |
| 2026-04-30 22:38 | 41.27395 | 28.73836 | 339 ft | 9 kts | 114° |
| 2026-04-30 22:39 | 41.27347 | 28.73861 | 335 ft | 7 kts | 178° |
| 2026-04-30 22:39 | 41.27196 | 28.73864 | 337 ft | 7 kts | 179° |
| 2026-04-30 22:40 | 41.27018 | 28.73869 | 335 ft | 10 kts | 179° |
| 2026-04-30 22:41 | 41.26898 | 28.73871 | 335 ft | 3 kts | 179° |
| 2026-04-30 22:41 | 41.26824 | 28.73872 | 339 ft | 9 kts | 178° |
| 2026-04-30 22:42 | 41.26654 | 28.73843 | 337 ft | 2 kts | 256° |
| 2026-04-30 22:43 | 41.26649 | 28.73768 | 340 ft | 3 kts | 267° |
| 2026-04-30 22:43 | 41.26649 | 28.73766 | 340 ft | 0 kts | 268° |